sensor_id;sensor_type;location;lat;lon;timestamp;temperature;humidity
5850;DHT22;2951;47.712;9.400;2023-03-20T00:00:50;8.50;99.90
5850;DHT22;2951;47.712;9.400;2023-03-20T00:03:17;8.50;99.90
5850;DHT22;2951;47.712;9.400;2023-03-20T00:05:44;8.50;99.90
5850;DHT22;2951;47.712;9.400;2023-03-20T00:08:10;8.40;99.90
5850;DHT22;2951;47.712;9.400;2023-03-20T00:10:39;8.30;99.90
5850;DHT22;2951;47.712;9.400;2023-03-20T00:13:06;8.30;99.90
5850;DHT22;2951;47.712;9.400;2023-03-20T00:15:36;8.10;99.90
5850;DHT22;2951;47.712;9.400;2023-03-20T00:18:17;8.10;99.90
5850;DHT22;2951;47.712;9.400;2023-03-20T00:20:45;8.00;99.90
5850;DHT22;2951;47.712;9.400;2023-03-20T00:23:12;7.90;99.90
5850;DHT22;2951;47.712;9.400;2023-03-20T00:25:39;7.90;99.90
5850;DHT22;2951;47.712;9.400;2023-03-20T00:28:19;7.80;99.90
5850;DHT22;2951;47.712;9.400;2023-03-20T00:30:48;7.80;99.90
5850;DHT22;2951;47.712;9.400;2023-03-20T00:33:16;7.90;99.90
5850;DHT22;2951;47.712;9.400;2023-03-20T00:35:42;7.90;99.90
5850;DHT22;2951;47.712;9.400;2023-03-20T00:38:09;8.00;99.90
5850;DHT22;2951;47.712;9.400;2023-03-20T00:40:35;8.10;99.90
5850;DHT22;2951;47.712;9.400;2023-03-20T00:43:02;8.00;99.90
5850;DHT22;2951;47.712;9.400;2023-03-20T00:45:30;8.00;99.90
5850;DHT22;2951;47.712;9.400;2023-03-20T00:47:58;8.00;99.90
5850;DHT22;2951;47.712;9.400;2023-03-20T00:50:29;8.00;99.90
5850;DHT22;2951;47.712;9.400;2023-03-20T00:52:56;8.00;99.90
5850;DHT22;2951;47.712;9.400;2023-03-20T00:55:24;7.90;99.90
5850;DHT22;2951;47.712;9.400;2023-03-20T00:57:59;8.00;99.90
5850;DHT22;2951;47.712;9.400;2023-03-20T01:02:59;7.90;99.90
5850;DHT22;2951;47.712;9.400;2023-03-20T01:05:26;7.90;99.90
5850;DHT22;2951;47.712;9.400;2023-03-20T01:07:54;7.70;99.90
5850;DHT22;2951;47.712;9.400;2023-03-20T01:10:23;7.60;99.90
5850;DHT22;2951;47.712;9.400;2023-03-20T01:12:52;7.70;99.90
5850;DHT22;2951;47.712;9.400;2023-03-20T01:15:24;7.80;99.90
5850;DHT22;2951;47.712;9.400;2023-03-20T01:17:51;7.90;99.90
5850;DHT22;2951;47.712;9.400;2023-03-20T01:20:22;8.10;99.90
5850;DHT22;2951;47.712;9.400;2023-03-20T01:22:50;8.10;99.90
5850;DHT22;2951;47.712;9.400;2023-03-20T01:25:16;8.20;99.90
5850;DHT22;2951;47.712;9.400;2023-03-20T01:27:44;8.30;99.90
5850;DHT22;2951;47.712;9.400;2023-03-20T01:30:16;8.30;99.90
5850;DHT22;2951;47.712;9.400;2023-03-20T01:32:43;8.20;99.90
5850;DHT22;2951;47.712;9.400;2023-03-20T01:35:12;8.30;99.90
5850;DHT22;2951;47.712;9.400;2023-03-20T01:37:39;8.20;99.90
5850;DHT22;2951;47.712;9.400;2023-03-20T01:42:52;8.20;99.90
5850;DHT22;2951;47.712;9.400;2023-03-20T01:45:20;8.30;99.90
5850;DHT22;2951;47.712;9.400;2023-03-20T01:47:47;8.30;99.90
5850;DHT22;2951;47.712;9.400;2023-03-20T01:52:45;8.30;99.90
5850;DHT22;2951;47.712;9.400;2023-03-20T01:55:13;8.30;99.90
5850;DHT22;2951;47.712;9.400;2023-03-20T01:57:40;8.30;99.90
5850;DHT22;2951;47.712;9.400;2023-03-20T02:00:10;8.30;99.90
5850;DHT22;2951;47.712;9.400;2023-03-20T02:02:39;8.30;99.90
5850;DHT22;2951;47.712;9.400;2023-03-20T02:05:07;8.30;99.90
5850;DHT22;2951;47.712;9.400;2023-03-20T02:07:34;8.30;99.90
5850;DHT22;2951;47.712;9.400;2023-03-20T02:10:12;8.30;99.90
5850;DHT22;2951;47.712;9.400;2023-03-20T02:12:40;8.30;99.90
5850;DHT22;2951;47.712;9.400;2023-03-20T02:15:07;8.30;99.90
5850;DHT22;2951;47.712;9.400;2023-03-20T02:17:34;8.30;99.90
5850;DHT22;2951;47.712;9.400;2023-03-20T02:22:51;8.30;99.90
5850;DHT22;2951;47.712;9.400;2023-03-20T02:44:36;8.10;99.90
5850;DHT22;2951;47.712;9.400;2023-03-20T02:46:36;8.10;99.90
5850;DHT22;2951;47.712;9.400;2023-03-20T02:49:17;8.10;99.90
5850;DHT22;2951;47.712;9.400;2023-03-20T02:51:49;8.10;99.90
5850;DHT22;2951;47.712;9.400;2023-03-20T02:54:29;8.00;99.90
5850;DHT22;2951;47.712;9.400;2023-03-20T02:59:32;7.90;99.90
5850;DHT22;2951;47.712;9.400;2023-03-20T03:02:14;7.90;99.90
5850;DHT22;2951;47.712;9.400;2023-03-20T03:04:51;7.90;99.90
5850;DHT22;2951;47.712;9.400;2023-03-20T03:07:21;7.90;99.90
5850;DHT22;2951;47.712;9.400;2023-03-20T03:09:53;7.90;99.90
5850;DHT22;2951;47.712;9.400;2023-03-20T03:12:22;8.00;99.90
5850;DHT22;2951;47.712;9.400;2023-03-20T03:14:51;8.00;99.90
5850;DHT22;2951;47.712;9.400;2023-03-20T03:17:19;8.00;99.90
5850;DHT22;2951;47.712;9.400;2023-03-20T03:19:49;8.00;99.90
5850;DHT22;2951;47.712;9.400;2023-03-20T03:22:16;8.00;99.90
5850;DHT22;2951;47.712;9.400;2023-03-20T03:24:44;8.10;99.90
5850;DHT22;2951;47.712;9.400;2023-03-20T03:27:16;7.90;99.90
5850;DHT22;2951;47.712;9.400;2023-03-20T03:29:45;7.90;99.90
5850;DHT22;2951;47.712;9.400;2023-03-20T03:32:48;7.90;99.90
5850;DHT22;2951;47.712;9.400;2023-03-20T03:35:09;7.90;99.90
5850;DHT22;2951;47.712;9.400;2023-03-20T03:37:48;7.90;99.90
5850;DHT22;2951;47.712;9.400;2023-03-20T03:43:17;7.70;99.90
5850;DHT22;2951;47.712;9.400;2023-03-20T03:48:35;7.70;99.90
5850;DHT22;2951;47.712;9.400;2023-03-20T03:51:11;7.70;99.90
5850;DHT22;2951;47.712;9.400;2023-03-20T03:53:40;7.60;99.90
5850;DHT22;2951;47.712;9.400;2023-03-20T03:56:09;7.40;99.90
5850;DHT22;2951;47.712;9.400;2023-03-20T03:58:41;7.30;99.90
5850;DHT22;2951;47.712;9.400;2023-03-20T04:01:09;7.40;99.90
5850;DHT22;2951;47.712;9.400;2023-03-20T04:03:38;7.50;99.90
5850;DHT22;2951;47.712;9.400;2023-03-20T04:06:05;7.50;99.90
5850;DHT22;2951;47.712;9.400;2023-03-20T04:08:34;7.60;99.90
5850;DHT22;2951;47.712;9.400;2023-03-20T04:11:01;7.80;99.90
5850;DHT22;2951;47.712;9.400;2023-03-20T04:13:28;7.80;99.90
5850;DHT22;2951;47.712;9.400;2023-03-20T04:15:55;7.90;99.90
5850;DHT22;2951;47.712;9.400;2023-03-20T04:18:21;8.00;99.90
5850;DHT22;2951;47.712;9.400;2023-03-20T04:20:48;8.00;99.90
5850;DHT22;2951;47.712;9.400;2023-03-20T04:23:14;8.00;99.90
5850;DHT22;2951;47.712;9.400;2023-03-20T04:25:41;8.10;99.90
5850;DHT22;2951;47.712;9.400;2023-03-20T04:28:08;8.10;99.90
5850;DHT22;2951;47.712;9.400;2023-03-20T04:30:36;8.10;99.90
5850;DHT22;2951;47.712;9.400;2023-03-20T04:33:02;8.10;99.90
5850;DHT22;2951;47.712;9.400;2023-03-20T04:35:29;8.10;99.90
5850;DHT22;2951;47.712;9.400;2023-03-20T04:37:56;8.20;99.90
5850;DHT22;2951;47.712;9.400;2023-03-20T04:40:22;8.20;99.90
5850;DHT22;2951;47.712;9.400;2023-03-20T04:42:49;8.10;99.90
5850;DHT22;2951;47.712;9.400;2023-03-20T04:45:16;8.10;99.90
5850;DHT22;2951;47.712;9.400;2023-03-20T04:47:43;8.10;99.90
5850;DHT22;2951;47.712;9.400;2023-03-20T04:50:09;8.10;99.90
5850;DHT22;2951;47.712;9.400;2023-03-20T04:52:37;8.10;99.90
5850;DHT22;2951;47.712;9.400;2023-03-20T04:55:04;8.20;99.90
5850;DHT22;2951;47.712;9.400;2023-03-20T04:57:30;8.10;99.90
5850;DHT22;2951;47.712;9.400;2023-03-20T04:59:58;8.10;99.90
5850;DHT22;2951;47.712;9.400;2023-03-20T05:02:25;8.10;99.90
5850;DHT22;2951;47.712;9.400;2023-03-20T05:04:52;8.10;99.90
5850;DHT22;2951;47.712;9.400;2023-03-20T05:07:19;8.10;99.90
5850;DHT22;2951;47.712;9.400;2023-03-20T05:09:46;8.10;99.90
5850;DHT22;2951;47.712;9.400;2023-03-20T05:12:12;8.10;99.90
5850;DHT22;2951;47.712;9.400;2023-03-20T05:14:39;7.90;99.90
5850;DHT22;2951;47.712;9.400;2023-03-20T05:17:06;7.80;99.90
5850;DHT22;2951;47.712;9.400;2023-03-20T05:19:32;7.70;99.90
5850;DHT22;2951;47.712;9.400;2023-03-20T05:21:59;7.60;99.90
5850;DHT22;2951;47.712;9.400;2023-03-20T05:24:26;7.70;99.90
5850;DHT22;2951;47.712;9.400;2023-03-20T05:26:54;7.70;99.90
5850;DHT22;2951;47.712;9.400;2023-03-20T05:29:21;7.80;99.90
5850;DHT22;2951;47.712;9.400;2023-03-20T05:31:47;7.80;99.90
5850;DHT22;2951;47.712;9.400;2023-03-20T05:34:14;7.80;99.90
5850;DHT22;2951;47.712;9.400;2023-03-20T05:36:41;7.70;99.90
5850;DHT22;2951;47.712;9.400;2023-03-20T05:39:07;7.70;99.90
5850;DHT22;2951;47.712;9.400;2023-03-20T05:41:34;7.70;99.90
5850;DHT22;2951;47.712;9.400;2023-03-20T05:44:01;7.70;99.90
5850;DHT22;2951;47.712;9.400;2023-03-20T05:46:27;7.70;99.90
5850;DHT22;2951;47.712;9.400;2023-03-20T05:48:54;7.80;99.90
5850;DHT22;2951;47.712;9.400;2023-03-20T05:51:21;7.80;99.90
5850;DHT22;2951;47.712;9.400;2023-03-20T05:53:48;7.80;99.90
5850;DHT22;2951;47.712;9.400;2023-03-20T05:56:14;7.90;99.90
5850;DHT22;2951;47.712;9.400;2023-03-20T05:58:41;7.90;99.90
5850;DHT22;2951;47.712;9.400;2023-03-20T06:01:08;7.90;99.90
5850;DHT22;2951;47.712;9.400;2023-03-20T06:03:34;8.10;99.90
5850;DHT22;2951;47.712;9.400;2023-03-20T06:06:02;8.10;99.90
5850;DHT22;2951;47.712;9.400;2023-03-20T06:08:29;8.10;99.90
5850;DHT22;2951;47.712;9.400;2023-03-20T06:10:56;8.10;99.90
5850;DHT22;2951;47.712;9.400;2023-03-20T06:13:22;8.10;99.90
5850;DHT22;2951;47.712;9.400;2023-03-20T06:15:49;8.20;99.90
5850;DHT22;2951;47.712;9.400;2023-03-20T06:18:16;8.20;99.90
5850;DHT22;2951;47.712;9.400;2023-03-20T06:20:43;8.20;99.90
5850;DHT22;2951;47.712;9.400;2023-03-20T06:23:09;8.20;99.90
5850;DHT22;2951;47.712;9.400;2023-03-20T06:25:36;8.20;99.90
5850;DHT22;2951;47.712;9.400;2023-03-20T06:28:04;8.30;99.90
5850;DHT22;2951;47.712;9.400;2023-03-20T06:30:30;8.20;99.90
5850;DHT22;2951;47.712;9.400;2023-03-20T06:32:57;8.30;99.90
5850;DHT22;2951;47.712;9.400;2023-03-20T06:35:23;8.40;99.90
5850;DHT22;2951;47.712;9.400;2023-03-20T06:37:50;8.40;99.90
5850;DHT22;2951;47.712;9.400;2023-03-20T06:40:17;8.30;99.90
5850;DHT22;2951;47.712;9.400;2023-03-20T06:42:44;8.30;99.90
5850;DHT22;2951;47.712;9.400;2023-03-20T06:45:10;8.50;99.90
5850;DHT22;2951;47.712;9.400;2023-03-20T06:47:37;8.50;99.90
5850;DHT22;2951;47.712;9.400;2023-03-20T06:50:04;8.50;99.90
5850;DHT22;2951;47.712;9.400;2023-03-20T06:52:31;8.60;99.90
5850;DHT22;2951;47.712;9.400;2023-03-20T06:54:58;8.60;99.90
5850;DHT22;2951;47.712;9.400;2023-03-20T06:57:24;8.60;99.90
5850;DHT22;2951;47.712;9.400;2023-03-20T06:59:51;8.80;99.90
5850;DHT22;2951;47.712;9.400;2023-03-20T07:02:18;8.90;99.90
5850;DHT22;2951;47.712;9.400;2023-03-20T07:04:45;8.90;99.90
5850;DHT22;2951;47.712;9.400;2023-03-20T07:07:12;9.00;99.90
5850;DHT22;2951;47.712;9.400;2023-03-20T07:09:39;9.10;99.90
5850;DHT22;2951;47.712;9.400;2023-03-20T07:12:09;9.20;99.90
5850;DHT22;2951;47.712;9.400;2023-03-20T07:14:35;9.20;99.90
5850;DHT22;2951;47.712;9.400;2023-03-20T07:17:02;9.20;99.90
5850;DHT22;2951;47.712;9.400;2023-03-20T07:19:28;9.40;99.90
5850;DHT22;2951;47.712;9.400;2023-03-20T07:21:57;9.50;99.90
5850;DHT22;2951;47.712;9.400;2023-03-20T07:24:27;9.60;99.90
5850;DHT22;2951;47.712;9.400;2023-03-20T07:26:54;9.60;99.90
5850;DHT22;2951;47.712;9.400;2023-03-20T07:29:20;9.70;99.90
5850;DHT22;2951;47.712;9.400;2023-03-20T07:31:47;9.70;99.90
5850;DHT22;2951;47.712;9.400;2023-03-20T07:34:14;9.60;99.90
5850;DHT22;2951;47.712;9.400;2023-03-20T07:36:41;9.60;99.90
5850;DHT22;2951;47.712;9.400;2023-03-20T07:39:08;9.60;99.90
5850;DHT22;2951;47.712;9.400;2023-03-20T07:41:35;9.70;99.90
5850;DHT22;2951;47.712;9.400;2023-03-20T07:44:01;9.90;99.90
5850;DHT22;2951;47.712;9.400;2023-03-20T07:46:28;9.90;99.90
5850;DHT22;2951;47.712;9.400;2023-03-20T07:48:55;9.70;99.90
5850;DHT22;2951;47.712;9.400;2023-03-20T07:51:24;9.80;99.90
5850;DHT22;2951;47.712;9.400;2023-03-20T07:53:50;9.90;99.90
5850;DHT22;2951;47.712;9.400;2023-03-20T07:56:17;10.00;99.90
5850;DHT22;2951;47.712;9.400;2023-03-20T07:58:44;10.00;99.90
5850;DHT22;2951;47.712;9.400;2023-03-20T08:01:10;10.00;99.90
5850;DHT22;2951;47.712;9.400;2023-03-20T08:03:37;9.90;99.90
5850;DHT22;2951;47.712;9.400;2023-03-20T08:06:05;9.90;99.90
5850;DHT22;2951;47.712;9.400;2023-03-20T08:08:34;10.00;99.90
5850;DHT22;2951;47.712;9.400;2023-03-20T08:11:00;10.30;99.90
5850;DHT22;2951;47.712;9.400;2023-03-20T08:13:27;10.30;99.90
5850;DHT22;2951;47.712;9.400;2023-03-20T08:15:54;10.30;99.90
5850;DHT22;2951;47.712;9.400;2023-03-20T08:18:20;10.20;99.90
5850;DHT22;2951;47.712;9.400;2023-03-20T08:20:48;10.20;99.90
5850;DHT22;2951;47.712;9.400;2023-03-20T08:23:15;10.30;99.90
5850;DHT22;2951;47.712;9.400;2023-03-20T08:25:48;10.20;99.90
5850;DHT22;2951;47.712;9.400;2023-03-20T08:28:15;10.40;99.90
5850;DHT22;2951;47.712;9.400;2023-03-20T08:30:42;10.60;99.90
5850;DHT22;2951;47.712;9.400;2023-03-20T08:33:09;10.70;99.90
5850;DHT22;2951;47.712;9.400;2023-03-20T08:35:36;11.00;99.90
5850;DHT22;2951;47.712;9.400;2023-03-20T08:38:03;11.10;99.90
5850;DHT22;2951;47.712;9.400;2023-03-20T08:40:31;10.90;99.90
5850;DHT22;2951;47.712;9.400;2023-03-20T08:42:58;10.90;99.90
5850;DHT22;2951;47.712;9.400;2023-03-20T08:45:24;10.60;99.90
5850;DHT22;2951;47.712;9.400;2023-03-20T08:47:52;10.80;99.90
5850;DHT22;2951;47.712;9.400;2023-03-20T08:50:18;10.90;99.90
5850;DHT22;2951;47.712;9.400;2023-03-20T08:52:45;11.00;99.90
5850;DHT22;2951;47.712;9.400;2023-03-20T08:55:13;11.20;99.90
5850;DHT22;2951;47.712;9.400;2023-03-20T08:57:40;11.20;99.90
5850;DHT22;2951;47.712;9.400;2023-03-20T09:00:08;11.20;99.90
5850;DHT22;2951;47.712;9.400;2023-03-20T09:02:35;11.10;99.90
5850;DHT22;2951;47.712;9.400;2023-03-20T09:05:02;11.10;99.90
5850;DHT22;2951;47.712;9.400;2023-03-20T09:07:29;11.10;99.90
5850;DHT22;2951;47.712;9.400;2023-03-20T09:09:56;11.10;99.90
5850;DHT22;2951;47.712;9.400;2023-03-20T09:12:22;11.00;99.90
5850;DHT22;2951;47.712;9.400;2023-03-20T09:14:49;10.80;99.90
5850;DHT22;2951;47.712;9.400;2023-03-20T09:17:16;10.70;99.90
5850;DHT22;2951;47.712;9.400;2023-03-20T09:19:42;11.00;99.90
5850;DHT22;2951;47.712;9.400;2023-03-20T09:22:13;11.00;99.90
5850;DHT22;2951;47.712;9.400;2023-03-20T09:24:40;11.00;99.90
5850;DHT22;2951;47.712;9.400;2023-03-20T09:27:07;10.90;99.90
5850;DHT22;2951;47.712;9.400;2023-03-20T09:29:33;10.80;99.90
5850;DHT22;2951;47.712;9.400;2023-03-20T09:32:00;10.70;99.90
5850;DHT22;2951;47.712;9.400;2023-03-20T09:34:27;10.60;99.90
5850;DHT22;2951;47.712;9.400;2023-03-20T09:36:55;10.80;99.90
5850;DHT22;2951;47.712;9.400;2023-03-20T09:39:22;10.70;99.90
5850;DHT22;2951;47.712;9.400;2023-03-20T09:41:48;10.80;99.90
5850;DHT22;2951;47.712;9.400;2023-03-20T09:44:36;11.20;99.90
5850;DHT22;2951;47.712;9.400;2023-03-20T09:52:15;11.90;99.90
5850;DHT22;2951;47.712;9.400;2023-03-20T09:54:44;11.90;99.90
5850;DHT22;2951;47.712;9.400;2023-03-20T09:57:23;11.80;99.90
5850;DHT22;2951;47.712;9.400;2023-03-20T09:59:54;11.70;99.90
5850;DHT22;2951;47.712;9.400;2023-03-20T10:02:24;11.60;99.90
5850;DHT22;2951;47.712;9.400;2023-03-20T10:04:54;11.80;99.90
5850;DHT22;2951;47.712;9.400;2023-03-20T10:07:21;12.10;99.90
5850;DHT22;2951;47.712;9.400;2023-03-20T10:09:48;12.40;99.90
5850;DHT22;2951;47.712;9.400;2023-03-20T10:22:48;12.70;99.90
5850;DHT22;2951;47.712;9.400;2023-03-20T10:28:10;13.20;99.90
5850;DHT22;2951;47.712;9.400;2023-03-20T10:30:45;13.20;99.90
5850;DHT22;2951;47.712;9.400;2023-03-20T10:38:29;13.20;99.90
5850;DHT22;2951;47.712;9.400;2023-03-20T10:41:00;13.00;99.90
5850;DHT22;2951;47.712;9.400;2023-03-20T10:43:31;12.50;99.90
5850;DHT22;2951;47.712;9.400;2023-03-20T10:46:17;12.30;99.90
5850;DHT22;2951;47.712;9.400;2023-03-20T10:51:17;12.40;99.90
5850;DHT22;2951;47.712;9.400;2023-03-20T10:53:48;12.40;99.90
5850;DHT22;2951;47.712;9.400;2023-03-20T10:56:17;12.30;99.90
5850;DHT22;2951;47.712;9.400;2023-03-20T10:58:46;12.10;99.90
5850;DHT22;2951;47.712;9.400;2023-03-20T11:01:13;12.20;99.90
5850;DHT22;2951;47.712;9.400;2023-03-20T11:03:40;12.10;99.90
5850;DHT22;2951;47.712;9.400;2023-03-20T11:08:37;12.10;99.90
5850;DHT22;2951;47.712;9.400;2023-03-20T11:11:04;12.20;99.90
5850;DHT22;2951;47.712;9.400;2023-03-20T11:13:35;12.10;99.90
5850;DHT22;2951;47.712;9.400;2023-03-20T11:16:07;11.80;99.90
5850;DHT22;2951;47.712;9.400;2023-03-20T11:18:34;12.20;99.90
5850;DHT22;2951;47.712;9.400;2023-03-20T11:21:01;12.50;99.90
5850;DHT22;2951;47.712;9.400;2023-03-20T11:23:31;12.50;99.90
5850;DHT22;2951;47.712;9.400;2023-03-20T11:26:05;12.50;99.90
5850;DHT22;2951;47.712;9.400;2023-03-20T11:28:36;12.50;99.90
5850;DHT22;2951;47.712;9.400;2023-03-20T11:33:39;12.20;99.90
5850;DHT22;2951;47.712;9.400;2023-03-20T11:36:19;12.40;99.90
5850;DHT22;2951;47.712;9.400;2023-03-20T11:38:47;12.70;99.90
5850;DHT22;2951;47.712;9.400;2023-03-20T11:41:25;13.00;99.90
5850;DHT22;2951;47.712;9.400;2023-03-20T11:43:52;13.20;99.90
5850;DHT22;2951;47.712;9.400;2023-03-20T11:46:19;13.20;99.90
5850;DHT22;2951;47.712;9.400;2023-03-20T11:49:02;13.10;99.90
5850;DHT22;2951;47.712;9.400;2023-03-20T11:51:29;12.80;99.90
5850;DHT22;2951;47.712;9.400;2023-03-20T11:53:58;12.60;99.90
5850;DHT22;2951;47.712;9.400;2023-03-20T11:56:26;12.60;99.90
5850;DHT22;2951;47.712;9.400;2023-03-20T11:58:57;12.80;99.90
5850;DHT22;2951;47.712;9.400;2023-03-20T12:01:25;12.80;99.90
5850;DHT22;2951;47.712;9.400;2023-03-20T12:09:04;13.20;99.90
5850;DHT22;2951;47.712;9.400;2023-03-20T12:11:36;13.30;99.90
5850;DHT22;2951;47.712;9.400;2023-03-20T12:14:05;13.60;99.90
5850;DHT22;2951;47.712;9.400;2023-03-20T12:16:33;13.60;99.90
5850;DHT22;2951;47.712;9.400;2023-03-20T12:19:03;13.50;99.90
5850;DHT22;2951;47.712;9.400;2023-03-20T12:21:38;13.50;99.90
5850;DHT22;2951;47.712;9.400;2023-03-20T12:26:35;13.30;99.90
5850;DHT22;2951;47.712;9.400;2023-03-20T12:31:34;13.50;99.90
5850;DHT22;2951;47.712;9.400;2023-03-20T12:36:49;13.50;99.90
5850;DHT22;2951;47.712;9.400;2023-03-20T12:39:22;13.10;99.90
5850;DHT22;2951;47.712;9.400;2023-03-20T12:47:18;13.40;99.90
5850;DHT22;2951;47.712;9.400;2023-03-20T13:07:20;13.20;99.90
5850;DHT22;2951;47.712;9.400;2023-03-20T13:09:52;13.30;99.90
5850;DHT22;2951;47.712;9.400;2023-03-20T13:27:55;13.40;99.90
5850;DHT22;2951;47.712;9.400;2023-03-20T13:30:26;13.30;99.90
5850;DHT22;2951;47.712;9.400;2023-03-20T13:38:27;13.50;99.90
5850;DHT22;2951;47.712;9.400;2023-03-20T13:41:05;13.60;99.90
5850;DHT22;2951;47.712;9.400;2023-03-20T13:43:37;14.00;99.90
5850;DHT22;2951;47.712;9.400;2023-03-20T13:48:38;14.10;99.90
5850;DHT22;2951;47.712;9.400;2023-03-20T13:56:14;13.50;99.90
5850;DHT22;2951;47.712;9.400;2023-03-20T13:59:09;13.60;99.90
5850;DHT22;2951;47.712;9.400;2023-03-20T14:04:01;14.30;99.90
5850;DHT22;2951;47.712;9.400;2023-03-20T14:08:58;15.00;99.90
5850;DHT22;2951;47.712;9.400;2023-03-20T14:11:30;15.30;99.90
5850;DHT22;2951;47.712;9.400;2023-03-20T14:16:33;15.10;99.90
5850;DHT22;2951;47.712;9.400;2023-03-20T14:19:07;14.60;99.90
5850;DHT22;2951;47.712;9.400;2023-03-20T14:21:36;14.20;99.90
5850;DHT22;2951;47.712;9.400;2023-03-20T14:24:05;14.20;99.90
5850;DHT22;2951;47.712;9.400;2023-03-20T14:26:36;14.90;99.90
5850;DHT22;2951;47.712;9.400;2023-03-20T14:31:37;16.90;99.90
5850;DHT22;2951;47.712;9.400;2023-03-20T14:42:06;17.40;99.90
5850;DHT22;2951;47.712;9.400;2023-03-20T14:47:27;16.50;99.90
5850;DHT22;2951;47.712;9.400;2023-03-20T14:50:17;16.80;99.90
5850;DHT22;2951;47.712;9.400;2023-03-20T14:57:47;17.20;99.90
5850;DHT22;2951;47.712;9.400;2023-03-20T15:02:54;17.10;99.90
5850;DHT22;2951;47.712;9.400;2023-03-20T15:05:26;17.40;99.90
5850;DHT22;2951;47.712;9.400;2023-03-20T15:07:56;17.60;99.90
5850;DHT22;2951;47.712;9.400;2023-03-20T15:10:26;17.20;99.90
5850;DHT22;2951;47.712;9.400;2023-03-20T15:12:52;16.40;99.90
5850;DHT22;2951;47.712;9.400;2023-03-20T15:15:25;16.00;99.90
5850;DHT22;2951;47.712;9.400;2023-03-20T15:17:52;15.80;99.90
5850;DHT22;2951;47.712;9.400;2023-03-20T15:20:20;16.30;99.90
5850;DHT22;2951;47.712;9.400;2023-03-20T15:22:48;16.90;99.90
5850;DHT22;2951;47.712;9.400;2023-03-20T15:25:16;17.10;99.90
5850;DHT22;2951;47.712;9.400;2023-03-20T15:27:42;16.70;99.90
5850;DHT22;2951;47.712;9.400;2023-03-20T15:30:10;16.50;99.90
5850;DHT22;2951;47.712;9.400;2023-03-20T15:32:39;16.30;99.90
5850;DHT22;2951;47.712;9.400;2023-03-20T15:35:10;16.60;99.90
5850;DHT22;2951;47.712;9.400;2023-03-20T15:37:37;17.00;99.90
5850;DHT22;2951;47.712;9.400;2023-03-20T15:40:21;16.70;99.90
5850;DHT22;2951;47.712;9.400;2023-03-20T15:45:27;16.60;99.90
5850;DHT22;2951;47.712;9.400;2023-03-20T15:48:39;16.10;99.90
5850;DHT22;2951;47.712;9.400;2023-03-20T15:50:53;15.90;99.90
5850;DHT22;2951;47.712;9.400;2023-03-20T15:53:36;15.00;99.90
5850;DHT22;2951;47.712;9.400;2023-03-20T15:56:16;14.50;99.90
5850;DHT22;2951;47.712;9.400;2023-03-20T15:58:46;15.00;99.90
5850;DHT22;2951;47.712;9.400;2023-03-20T16:01:14;14.40;99.90
5850;DHT22;2951;47.712;9.400;2023-03-20T16:03:42;14.90;99.90
5850;DHT22;2951;47.712;9.400;2023-03-20T16:06:10;15.70;99.90
5850;DHT22;2951;47.712;9.400;2023-03-20T16:08:37;15.80;99.90
5850;DHT22;2951;47.712;9.400;2023-03-20T16:11:05;16.00;99.90
5850;DHT22;2951;47.712;9.400;2023-03-20T16:13:37;16.50;99.90
5850;DHT22;2951;47.712;9.400;2023-03-20T16:16:05;16.50;99.90
5850;DHT22;2951;47.712;9.400;2023-03-20T16:18:37;16.10;99.90
5850;DHT22;2951;47.712;9.400;2023-03-20T16:21:08;16.40;99.90
5850;DHT22;2951;47.712;9.400;2023-03-20T16:23:39;16.70;99.90
5850;DHT22;2951;47.712;9.400;2023-03-20T16:26:07;16.20;99.90
5850;DHT22;2951;47.712;9.400;2023-03-20T16:28:34;16.20;99.90
5850;DHT22;2951;47.712;9.400;2023-03-20T16:31:09;16.00;99.90
5850;DHT22;2951;47.712;9.400;2023-03-20T16:33:37;15.30;99.90
5850;DHT22;2951;47.712;9.400;2023-03-20T16:36:05;14.80;99.90
5850;DHT22;2951;47.712;9.400;2023-03-20T16:38:33;14.70;99.90
5850;DHT22;2951;47.712;9.400;2023-03-20T16:41:20;14.70;99.90
5850;DHT22;2951;47.712;9.400;2023-03-20T16:43:50;14.40;99.90
5850;DHT22;2951;47.712;9.400;2023-03-20T16:46:19;14.20;99.90
5850;DHT22;2951;47.712;9.400;2023-03-20T16:48:49;13.60;99.90
5850;DHT22;2951;47.712;9.400;2023-03-20T16:51:21;13.40;99.90
5850;DHT22;2951;47.712;9.400;2023-03-20T16:53:48;13.30;99.90
5850;DHT22;2951;47.712;9.400;2023-03-20T16:56:17;13.30;99.90
5850;DHT22;2951;47.712;9.400;2023-03-20T16:58:47;13.20;99.90
5850;DHT22;2951;47.712;9.400;2023-03-20T17:01:18;13.20;99.90
5850;DHT22;2951;47.712;9.400;2023-03-20T17:03:49;13.20;99.90
5850;DHT22;2951;47.712;9.400;2023-03-20T17:08:46;12.80;99.90
5850;DHT22;2951;47.712;9.400;2023-03-20T17:11:15;12.70;99.90
5850;DHT22;2951;47.712;9.400;2023-03-20T17:13:47;12.60;99.90
5850;DHT22;2951;47.712;9.400;2023-03-20T17:16:15;12.60;99.90
5850;DHT22;2951;47.712;9.400;2023-03-20T17:19:03;12.70;99.90
5850;DHT22;2951;47.712;9.400;2023-03-20T17:21:30;12.70;99.90
5850;DHT22;2951;47.712;9.400;2023-03-20T17:23:57;12.60;99.90
5850;DHT22;2951;47.712;9.400;2023-03-20T17:26:24;12.60;99.90
5850;DHT22;2951;47.712;9.400;2023-03-20T17:28:51;12.50;99.90
5850;DHT22;2951;47.712;9.400;2023-03-20T17:31:18;12.40;99.90
5850;DHT22;2951;47.712;9.400;2023-03-20T17:33:44;12.30;99.90
5850;DHT22;2951;47.712;9.400;2023-03-20T17:36:16;12.20;99.90
5850;DHT22;2951;47.712;9.400;2023-03-20T17:38:44;12.10;99.90
5850;DHT22;2951;47.712;9.400;2023-03-20T17:41:15;12.00;99.90
5850;DHT22;2951;47.712;9.400;2023-03-20T17:43:42;11.90;99.90
5850;DHT22;2951;47.712;9.400;2023-03-20T17:46:13;11.80;99.90
5850;DHT22;2951;47.712;9.400;2023-03-20T17:48:42;11.70;99.90
5850;DHT22;2951;47.712;9.400;2023-03-20T17:51:08;11.60;99.90
5850;DHT22;2951;47.712;9.400;2023-03-20T17:53:35;11.40;99.90
5850;DHT22;2951;47.712;9.400;2023-03-20T17:56:04;11.30;99.90
5850;DHT22;2951;47.712;9.400;2023-03-20T17:58:31;11.10;99.90
5850;DHT22;2951;47.712;9.400;2023-03-20T18:00:58;10.90;99.90
5850;DHT22;2951;47.712;9.400;2023-03-20T18:03:24;10.90;99.90
5850;DHT22;2951;47.712;9.400;2023-03-20T18:05:51;10.90;99.90
5850;DHT22;2951;47.712;9.400;2023-03-20T18:08:18;10.80;99.90
5850;DHT22;2951;47.712;9.400;2023-03-20T18:10:49;10.60;99.90
5850;DHT22;2951;47.712;9.400;2023-03-20T18:13:17;10.30;99.90
5850;DHT22;2951;47.712;9.400;2023-03-20T18:15:50;10.20;99.90
5850;DHT22;2951;47.712;9.400;2023-03-20T18:18:17;10.10;99.90
5850;DHT22;2951;47.712;9.400;2023-03-20T18:20:44;10.10;99.90
5850;DHT22;2951;47.712;9.400;2023-03-20T18:23:12;10.00;99.90
5850;DHT22;2951;47.712;9.400;2023-03-20T18:25:39;10.10;99.90
5850;DHT22;2951;47.712;9.400;2023-03-20T18:28:09;10.10;99.90
5850;DHT22;2951;47.712;9.400;2023-03-20T18:30:38;10.10;99.90
5850;DHT22;2951;47.712;9.400;2023-03-20T18:33:05;10.20;99.90
5850;DHT22;2951;47.712;9.400;2023-03-20T18:35:33;10.30;99.90
5850;DHT22;2951;47.712;9.400;2023-03-20T18:38:00;10.30;99.90
5850;DHT22;2951;47.712;9.400;2023-03-20T18:40:31;10.40;99.90
5850;DHT22;2951;47.712;9.400;2023-03-20T18:42:57;10.40;99.90
5850;DHT22;2951;47.712;9.400;2023-03-20T18:45:25;10.40;99.90
5850;DHT22;2951;47.712;9.400;2023-03-20T18:47:53;10.30;99.90
5850;DHT22;2951;47.712;9.400;2023-03-20T18:50:36;10.40;99.90
5850;DHT22;2951;47.712;9.400;2023-03-20T18:53:04;10.30;99.90
5850;DHT22;2951;47.712;9.400;2023-03-20T18:55:32;10.40;99.90
5850;DHT22;2951;47.712;9.400;2023-03-20T18:57:59;10.30;99.90
5850;DHT22;2951;47.712;9.400;2023-03-20T19:00:30;10.30;99.90
5850;DHT22;2951;47.712;9.400;2023-03-20T19:03:00;10.30;99.90
5850;DHT22;2951;47.712;9.400;2023-03-20T19:05:27;10.30;99.90
5850;DHT22;2951;47.712;9.400;2023-03-20T19:07:54;10.30;99.90